< Typhoon 196731 1967 Season Typhoon 196733 >
Typhoon 196732 (BABE)
General InformationTrack Information on Google Maps || Disaster Info.ResourceGoogle EarthGE AnimationAtom FeedGeoJSON
Detalied Best Track (Time Zone = UTC)
Year Month Day Hour Lat. Long. Pressure (hPa) Wind (kt) Class Image Chart
1967 10 6 12 20.0 150.0 1008 0 2 -- Chart
1967 10 6 18 20.5 149.5 1006 0 2 -- Chart
1967 10 7 00 21.1 149.0 1002 0 9 -- Chart
1967 10 7 06 22.0 148.6 1000 0 9 -- Chart
1967 10 7 12 23.0 148.4 998 0 9 -- Chart
1967 10 7 18 24.0 148.1 994 0 9 -- Chart
1967 10 8 00 25.0 148.0 990 0 9 -- Chart
1967 10 8 06 26.1 148.0 990 0 9 -- Chart
1967 10 8 12 27.0 148.6 985 0 9 -- Chart
1967 10 8 18 27.8 149.5 985 0 9 -- Chart
1967 10 9 00 29.1 150.8 990 0 9 -- Chart
1967 10 9 06 30.3 152.5 982 0 9 -- Chart
1967 10 9 12 31.2 154.8 980 0 9 -- Chart
1967 10 9 18 32.2 157.8 980 0 9 -- Chart
1967 10 10 00 33.0 160.8 985 0 9 -- Chart
1967 10 10 06 33.6 164.0 990 0 9 -- Chart
1967 10 10 12 34.0 167.7 998 0 6 -- Chart
1967 10 10 18 34.0 171.2 1002 0 6 -- Chart
1967 10 11 00 35.0 175.3 1008 0 6 -- Chart
1967 10 11 06 36.0 179.0 1008 0 6 -- Chart
Japan Meteorological Agency Best Track Data | Correction Date : 1989-06-01
< Typhoon 196731 1967 Season Typhoon 196733 >

Help